sensor_id;sensor_type;location;lat;lon;timestamp;temperature;humidity
56753;DHT22;42627;42.646;23.642;2023-05-10T01:43:22;9.00;99.90
56753;DHT22;42627;42.646;23.642;2023-05-10T01:45:35;8.90;99.90
56753;DHT22;42627;42.646;23.642;2023-05-10T01:47:54;8.80;99.90
56753;DHT22;42627;42.646;23.642;2023-05-10T01:49:56;8.80;99.90
56753;DHT22;42627;42.646;23.642;2023-05-10T01:52:06;8.80;99.90
56753;DHT22;42627;42.646;23.642;2023-05-10T01:54:08;8.70;99.90
56753;DHT22;42627;42.646;23.642;2023-05-10T01:56:29;8.70;99.90
56753;DHT22;42627;42.646;23.642;2023-05-10T01:58:55;8.60;99.90
56753;DHT22;42627;42.646;23.642;2023-05-10T02:01:09;8.50;99.90
56753;DHT22;42627;42.646;23.642;2023-05-10T02:03:12;8.50;99.90
56753;DHT22;42627;42.646;23.642;2023-05-10T02:05:16;8.40;99.90
56753;DHT22;42627;42.646;23.642;2023-05-10T02:07:18;8.40;99.90
56753;DHT22;42627;42.646;23.642;2023-05-10T02:09:20;8.40;99.90
56753;DHT22;42627;42.646;23.642;2023-05-10T02:11:21;8.40;99.90
56753;DHT22;42627;42.646;23.642;2023-05-10T02:13:24;8.30;99.90
56753;DHT22;42627;42.646;23.642;2023-05-10T02:15:26;8.30;99.90
56753;DHT22;42627;42.646;23.642;2023-05-10T02:17:28;8.30;99.90
56753;DHT22;42627;42.646;23.642;2023-05-10T02:19:32;8.30;99.90
56753;DHT22;42627;42.646;23.642;2023-05-10T02:21:34;8.20;99.90
56753;DHT22;42627;42.646;23.642;2023-05-10T02:25:37;8.20;99.90
56753;DHT22;42627;42.646;23.642;2023-05-10T02:27:41;8.20;99.90
56753;DHT22;42627;42.646;23.642;2023-05-10T02:29:43;8.10;99.90
56753;DHT22;42627;42.646;23.642;2023-05-10T02:32:08;8.10;99.90
56753;DHT22;42627;42.646;23.642;2023-05-10T02:34:41;8.10;99.90
56753;DHT22;42627;42.646;23.642;2023-05-10T02:36:48;8.00;99.90
56753;DHT22;42627;42.646;23.642;2023-05-10T02:38:51;7.90;99.90
56753;DHT22;42627;42.646;23.642;2023-05-10T02:40:54;7.80;99.90
56753;DHT22;42627;42.646;23.642;2023-05-10T02:42:57;7.80;99.90
56753;DHT22;42627;42.646;23.642;2023-05-10T02:45:20;7.80;99.90
56753;DHT22;42627;42.646;23.642;2023-05-10T02:47:22;7.80;99.90
56753;DHT22;42627;42.646;23.642;2023-05-10T02:49:23;7.80;99.90
56753;DHT22;42627;42.646;23.642;2023-05-10T03:15:22;7.70;99.90
56753;DHT22;42627;42.646;23.642;2023-05-10T03:17:35;7.60;99.90
56753;DHT22;42627;42.646;23.642;2023-05-10T03:20:06;7.60;99.90
56753;DHT22;42627;42.646;23.642;2023-05-10T03:22:10;7.60;99.90
56753;DHT22;42627;42.646;23.642;2023-05-10T03:24:13;7.60;99.90
56753;DHT22;42627;42.646;23.642;2023-05-10T03:26:23;7.60;99.90
56753;DHT22;42627;42.646;23.642;2023-05-10T03:28:25;7.60;99.90
56753;DHT22;42627;42.646;23.642;2023-05-10T03:30:46;7.60;99.90
56753;DHT22;42627;42.646;23.642;2023-05-10T03:33:05;7.60;99.90
56753;DHT22;42627;42.646;23.642;2023-05-10T03:35:33;7.60;99.90
56753;DHT22;42627;42.646;23.642;2023-05-10T03:37:34;7.60;99.90
56753;DHT22;42627;42.646;23.642;2023-05-10T03:39:35;7.60;99.90
56753;DHT22;42627;42.646;23.642;2023-05-10T03:41:36;7.70;99.90
56753;DHT22;42627;42.646;23.642;2023-05-10T03:43:36;7.70;99.90
56753;DHT22;42627;42.646;23.642;2023-05-10T03:45:43;7.70;99.90
56753;DHT22;42627;42.646;23.642;2023-05-10T03:47:43;7.70;99.90
56753;DHT22;42627;42.646;23.642;2023-05-10T03:51:54;7.60;99.90
56753;DHT22;42627;42.646;23.642;2023-05-10T03:53:55;7.70;99.90
56753;DHT22;42627;42.646;23.642;2023-05-10T03:57:57;7.70;99.90
56753;DHT22;42627;42.646;23.642;2023-05-10T07:56:34;7.70;99.90
56753;DHT22;42627;42.646;23.642;2023-05-10T09:19:32;9.70;91.60
56753;DHT22;42627;42.646;23.642;2023-05-10T10:58:38;11.30;82.80
56753;DHT22;42627;42.646;23.642;2023-05-10T11:00:39;12.40;76.20
56753;DHT22;42627;42.646;23.642;2023-05-10T11:02:46;12.40;75.30
56753;DHT22;42627;42.646;23.642;2023-05-10T11:04:48;12.30;75.60
56753;DHT22;42627;42.646;23.642;2023-05-10T11:06:49;12.30;75.90
56753;DHT22;42627;42.646;23.642;2023-05-10T11:09:10;12.30;76.60
56753;DHT22;42627;42.646;23.642;2023-05-10T11:18:18;12.30;74.70
56753;DHT22;42627;42.646;23.642;2023-05-10T11:22:25;12.30;77.50
56753;DHT22;42627;42.646;23.642;2023-05-10T11:26:35;12.40;75.70
56753;DHT22;42627;42.646;23.642;2023-05-10T11:32:47;12.30;75.10
56753;DHT22;42627;42.646;23.642;2023-05-10T11:34:48;12.30;75.80
56753;DHT22;42627;42.646;23.642;2023-05-10T11:36:53;12.30;75.70
56753;DHT22;42627;42.646;23.642;2023-05-10T11:39:13;12.30;75.50
56753;DHT22;42627;42.646;23.642;2023-05-10T11:41:28;12.20;76.90
56753;DHT22;42627;42.646;23.642;2023-05-10T11:43:57;12.20;75.10
56753;DHT22;42627;42.646;23.642;2023-05-10T11:45:57;12.20;77.20
56753;DHT22;42627;42.646;23.642;2023-05-10T11:47:59;12.10;75.70
56753;DHT22;42627;42.646;23.642;2023-05-10T11:50:00;12.10;76.50
56753;DHT22;42627;42.646;23.642;2023-05-10T11:52:05;12.00;74.80
56753;DHT22;42627;42.646;23.642;2023-05-10T11:56:09;12.00;75.20
56753;DHT22;42627;42.646;23.642;2023-05-10T11:58:15;12.10;76.50
56753;DHT22;42627;42.646;23.642;2023-05-10T12:02:17;12.10;76.00
56753;DHT22;42627;42.646;23.642;2023-05-10T12:04:18;12.10;77.50
56753;DHT22;42627;42.646;23.642;2023-05-10T12:06:19;12.20;77.10
56753;DHT22;42627;42.646;23.642;2023-05-10T12:08:30;12.20;76.50
56753;DHT22;42627;42.646;23.642;2023-05-10T12:10:49;12.20;76.60
56753;DHT22;42627;42.646;23.642;2023-05-10T12:13:12;12.20;75.90
56753;DHT22;42627;42.646;23.642;2023-05-10T12:15:22;12.20;76.80
56753;DHT22;42627;42.646;23.642;2023-05-10T12:17:27;12.20;74.80
56753;DHT22;42627;42.646;23.642;2023-05-10T12:19:28;12.20;74.10
56753;DHT22;42627;42.646;23.642;2023-05-10T12:21:29;12.30;74.70
56753;DHT22;42627;42.646;23.642;2023-05-10T12:23:31;12.40;74.50
56753;DHT22;42627;42.646;23.642;2023-05-10T12:25:36;12.50;75.30
56753;DHT22;42627;42.646;23.642;2023-05-10T12:29:48;12.60;72.70
56753;DHT22;42627;42.646;23.642;2023-05-10T12:36:06;12.70;75.90
56753;DHT22;42627;42.646;23.642;2023-05-10T12:40:51;12.90;76.10
56753;DHT22;42627;42.646;23.642;2023-05-10T12:43:07;12.80;72.40
56753;DHT22;42627;42.646;23.642;2023-05-10T12:45:08;12.70;72.20
56753;DHT22;42627;42.646;23.642;2023-05-10T12:47:09;12.70;74.70
56753;DHT22;42627;42.646;23.642;2023-05-10T12:49:11;12.70;73.70
56753;DHT22;42627;42.646;23.642;2023-05-10T12:51:11;12.80;74.30
56753;DHT22;42627;42.646;23.642;2023-05-10T12:53:14;12.70;72.80
56753;DHT22;42627;42.646;23.642;2023-05-10T12:55:16;12.70;72.20
56753;DHT22;42627;42.646;23.642;2023-05-10T12:59:36;12.70;73.50
56753;DHT22;42627;42.646;23.642;2023-05-10T13:01:36;12.70;75.30
56753;DHT22;42627;42.646;23.642;2023-05-10T13:03:37;12.60;73.10
56753;DHT22;42627;42.646;23.642;2023-05-10T13:05:38;12.60;75.80
56753;DHT22;42627;42.646;23.642;2023-05-10T13:07:45;12.60;73.10
56753;DHT22;42627;42.646;23.642;2023-05-10T13:10:09;12.50;74.00
56753;DHT22;42627;42.646;23.642;2023-05-10T13:12:28;12.50;75.60
56753;DHT22;42627;42.646;23.642;2023-05-10T13:14:29;12.50;76.20
56753;DHT22;42627;42.646;23.642;2023-05-10T13:16:31;12.50;74.90
56753;DHT22;42627;42.646;23.642;2023-05-10T13:18:31;12.50;75.50
56753;DHT22;42627;42.646;23.642;2023-05-10T13:20:32;12.40;75.30
56753;DHT22;42627;42.646;23.642;2023-05-10T13:22:33;12.40;75.90
56753;DHT22;42627;42.646;23.642;2023-05-10T13:24:33;12.30;75.90
56753;DHT22;42627;42.646;23.642;2023-05-10T13:26:34;12.30;76.90
56753;DHT22;42627;42.646;23.642;2023-05-10T13:28:44;12.20;76.00
56753;DHT22;42627;42.646;23.642;2023-05-10T13:30:46;12.20;76.50
56753;DHT22;42627;42.646;23.642;2023-05-10T13:32:46;12.20;77.10
56753;DHT22;42627;42.646;23.642;2023-05-10T13:34:47;12.10;76.90
56753;DHT22;42627;42.646;23.642;2023-05-10T13:36:48;12.10;76.80
56753;DHT22;42627;42.646;23.642;2023-05-10T13:39:07;12.10;77.70
56753;DHT22;42627;42.646;23.642;2023-05-10T13:43:43;12.10;77.80
56753;DHT22;42627;42.646;23.642;2023-05-10T13:45:43;12.10;77.90
56753;DHT22;42627;42.646;23.642;2023-05-10T13:47:44;12.00;77.30
56753;DHT22;42627;42.646;23.642;2023-05-10T13:49:45;12.00;77.00
56753;DHT22;42627;42.646;23.642;2023-05-10T13:51:45;12.00;79.10
56753;DHT22;42627;42.646;23.642;2023-05-10T13:53:46;12.10;78.30
56753;DHT22;42627;42.646;23.642;2023-05-10T13:55:47;12.10;77.90
56753;DHT22;42627;42.646;23.642;2023-05-10T14:02:15;12.10;77.90
56753;DHT22;42627;42.646;23.642;2023-05-10T14:04:16;12.10;77.40
56753;DHT22;42627;42.646;23.642;2023-05-10T14:06:17;12.00;77.80
56753;DHT22;42627;42.646;23.642;2023-05-10T14:08:45;11.90;77.80
56753;DHT22;42627;42.646;23.642;2023-05-10T14:11:08;12.00;79.10
56753;DHT22;42627;42.646;23.642;2023-05-10T14:13:21;11.90;78.30
56753;DHT22;42627;42.646;23.642;2023-05-10T14:15:23;12.00;79.00
56753;DHT22;42627;42.646;23.642;2023-05-10T14:17:25;11.90;79.20
56753;DHT22;42627;42.646;23.642;2023-05-10T14:19:26;12.00;79.30
56753;DHT22;42627;42.646;23.642;2023-05-10T14:21:27;12.00;77.80
56753;DHT22;42627;42.646;23.642;2023-05-10T14:23:30;12.00;78.40
56753;DHT22;42627;42.646;23.642;2023-05-10T14:25:30;12.00;77.90
56753;DHT22;42627;42.646;23.642;2023-05-10T14:29:42;12.00;77.90
56753;DHT22;42627;42.646;23.642;2023-05-10T14:31:42;11.90;78.00
56753;DHT22;42627;42.646;23.642;2023-05-10T14:33:43;12.00;79.50
56753;DHT22;42627;42.646;23.642;2023-05-10T14:35:44;12.00;78.60
56753;DHT22;42627;42.646;23.642;2023-05-10T14:38:22;12.00;79.10
56753;DHT22;42627;42.646;23.642;2023-05-10T14:43:20;12.00;79.50
56753;DHT22;42627;42.646;23.642;2023-05-10T14:45:21;12.00;79.10
56753;DHT22;42627;42.646;23.642;2023-05-10T14:47:22;12.00;77.60
56753;DHT22;42627;42.646;23.642;2023-05-10T14:49:23;11.90;79.50
56753;DHT22;42627;42.646;23.642;2023-05-10T14:51:26;12.00;79.60
56753;DHT22;42627;42.646;23.642;2023-05-10T14:53:26;12.00;77.10
56753;DHT22;42627;42.646;23.642;2023-05-10T14:55:27;12.00;77.20
56753;DHT22;42627;42.646;23.642;2023-05-10T14:57:33;12.00;77.00
56753;DHT22;42627;42.646;23.642;2023-05-10T14:59:33;12.00;76.80
56753;DHT22;42627;42.646;23.642;2023-05-10T15:01:35;12.00;78.10
56753;DHT22;42627;42.646;23.642;2023-05-10T15:03:38;12.00;77.90
56753;DHT22;42627;42.646;23.642;2023-05-10T15:05:40;12.10;77.20
56753;DHT22;42627;42.646;23.642;2023-05-10T15:10:37;12.10;77.70
56753;DHT22;42627;42.646;23.642;2023-05-10T15:12:42;12.10;76.60
56753;DHT22;42627;42.646;23.642;2023-05-10T15:14:46;12.10;76.70
56753;DHT22;42627;42.646;23.642;2023-05-10T15:16:48;12.10;76.20
56753;DHT22;42627;42.646;23.642;2023-05-10T15:18:48;12.10;78.50
56753;DHT22;42627;42.646;23.642;2023-05-10T15:20:49;12.10;77.60
56753;DHT22;42627;42.646;23.642;2023-05-10T15:22:50;12.10;77.00
56753;DHT22;42627;42.646;23.642;2023-05-10T15:24:51;12.10;77.90
56753;DHT22;42627;42.646;23.642;2023-05-10T15:29:02;12.00;79.20
56753;DHT22;42627;42.646;23.642;2023-05-10T15:31:02;12.10;79.00
56753;DHT22;42627;42.646;23.642;2023-05-10T15:33:03;12.00;77.10
56753;DHT22;42627;42.646;23.642;2023-05-10T15:35:04;12.00;76.50
56753;DHT22;42627;42.646;23.642;2023-05-10T15:37:04;12.00;77.00
56753;DHT22;42627;42.646;23.642;2023-05-10T15:39:05;12.00;77.80
56753;DHT22;42627;42.646;23.642;2023-05-10T15:41:06;12.00;76.50
56753;DHT22;42627;42.646;23.642;2023-05-10T15:43:37;12.00;76.30
56753;DHT22;42627;42.646;23.642;2023-05-10T15:45:47;12.00;77.30
56753;DHT22;42627;42.646;23.642;2023-05-10T15:47:52;12.00;78.20
56753;DHT22;42627;42.646;23.642;2023-05-10T15:49:53;12.00;78.10
56753;DHT22;42627;42.646;23.642;2023-05-10T15:51:53;11.90;79.40
56753;DHT22;42627;42.646;23.642;2023-05-10T15:53:54;11.90;78.60
56753;DHT22;42627;42.646;23.642;2023-05-10T15:55:55;11.90;80.80
56753;DHT22;42627;42.646;23.642;2023-05-10T15:57:55;11.90;81.00
56753;DHT22;42627;42.646;23.642;2023-05-10T15:59:56;11.80;81.10
56753;DHT22;42627;42.646;23.642;2023-05-10T16:01:57;11.80;80.40
56753;DHT22;42627;42.646;23.642;2023-05-10T16:03:58;11.80;81.50
56753;DHT22;42627;42.646;23.642;2023-05-10T16:06:00;11.70;81.50
56753;DHT22;42627;42.646;23.642;2023-05-10T16:08:00;11.70;82.20
56753;DHT22;42627;42.646;23.642;2023-05-10T16:10:01;11.60;82.30
56753;DHT22;42627;42.646;23.642;2023-05-10T16:12:06;11.60;82.90
56753;DHT22;42627;42.646;23.642;2023-05-10T16:14:07;11.60;82.80
56753;DHT22;42627;42.646;23.642;2023-05-10T16:16:11;11.60;82.00
56753;DHT22;42627;42.646;23.642;2023-05-10T16:18:14;11.50;83.00
56753;DHT22;42627;42.646;23.642;2023-05-10T16:20:17;11.50;82.20
56753;DHT22;42627;42.646;23.642;2023-05-10T16:22:18;11.40;82.20
56753;DHT22;42627;42.646;23.642;2023-05-10T16:24:18;11.40;82.30
56753;DHT22;42627;42.646;23.642;2023-05-10T16:26:21;11.30;82.90
56753;DHT22;42627;42.646;23.642;2023-05-10T16:28:25;11.30;82.60
56753;DHT22;42627;42.646;23.642;2023-05-10T16:30:25;11.30;82.60
56753;DHT22;42627;42.646;23.642;2023-05-10T16:32:40;11.20;82.70
56753;DHT22;42627;42.646;23.642;2023-05-10T16:34:43;11.20;83.10
56753;DHT22;42627;42.646;23.642;2023-05-10T16:36:44;11.20;83.40
56753;DHT22;42627;42.646;23.642;2023-05-10T16:38:44;11.10;84.40
56753;DHT22;42627;42.646;23.642;2023-05-10T16:40:45;11.10;85.10
56753;DHT22;42627;42.646;23.642;2023-05-10T16:43:04;11.20;84.90
56753;DHT22;42627;42.646;23.642;2023-05-10T16:45:17;11.10;85.10
56753;DHT22;42627;42.646;23.642;2023-05-10T16:47:21;11.20;86.30
56753;DHT22;42627;42.646;23.642;2023-05-10T16:49:25;11.20;85.70
56753;DHT22;42627;42.646;23.642;2023-05-10T16:51:26;11.20;86.30
56753;DHT22;42627;42.646;23.642;2023-05-10T16:53:30;11.20;86.50
56753;DHT22;42627;42.646;23.642;2023-05-10T16:55:31;11.10;86.70
56753;DHT22;42627;42.646;23.642;2023-05-10T16:57:32;11.10;86.70
56753;DHT22;42627;42.646;23.642;2023-05-10T16:59:33;11.10;87.10
56753;DHT22;42627;42.646;23.642;2023-05-10T17:01:33;11.00;87.50
56753;DHT22;42627;42.646;23.642;2023-05-10T17:03:34;11.10;89.20
56753;DHT22;42627;42.646;23.642;2023-05-10T17:05:35;11.00;89.00
56753;DHT22;42627;42.646;23.642;2023-05-10T17:07:36;11.00;89.30
56753;DHT22;42627;42.646;23.642;2023-05-10T17:09:37;11.00;89.60
56753;DHT22;42627;42.646;23.642;2023-05-10T17:11:38;11.00;89.50
56753;DHT22;42627;42.646;23.642;2023-05-10T17:13:39;11.00;89.80
56753;DHT22;42627;42.646;23.642;2023-05-10T17:15:39;11.00;89.70
56753;DHT22;42627;42.646;23.642;2023-05-10T17:17:43;11.00;90.00
56753;DHT22;42627;42.646;23.642;2023-05-10T17:19:44;10.90;89.80
56753;DHT22;42627;42.646;23.642;2023-05-10T17:21:47;10.90;90.60
56753;DHT22;42627;42.646;23.642;2023-05-10T17:23:51;10.80;90.20
56753;DHT22;42627;42.646;23.642;2023-05-10T17:25:52;10.90;89.60
56753;DHT22;42627;42.646;23.642;2023-05-10T17:27:52;10.90;89.80
56753;DHT22;42627;42.646;23.642;2023-05-10T17:29:56;10.90;87.40
56753;DHT22;42627;42.646;23.642;2023-05-10T17:31:57;10.90;89.00
56753;DHT22;42627;42.646;23.642;2023-05-10T17:33:58;10.90;89.30
56753;DHT22;42627;42.646;23.642;2023-05-10T17:35:59;10.90;89.90
56753;DHT22;42627;42.646;23.642;2023-05-10T17:38:00;10.80;90.80
56753;DHT22;42627;42.646;23.642;2023-05-10T17:40:03;10.80;90.30
56753;DHT22;42627;42.646;23.642;2023-05-10T17:42:05;10.80;91.20
56753;DHT22;42627;42.646;23.642;2023-05-10T17:44:06;10.80;91.00
56753;DHT22;42627;42.646;23.642;2023-05-10T17:46:06;10.80;91.00
56753;DHT22;42627;42.646;23.642;2023-05-10T17:48:10;10.80;91.10
56753;DHT22;42627;42.646;23.642;2023-05-10T17:50:11;10.80;90.80
56753;DHT22;42627;42.646;23.642;2023-05-10T17:52:12;10.80;90.40
56753;DHT22;42627;42.646;23.642;2023-05-10T17:54:13;10.80;91.40
56753;DHT22;42627;42.646;23.642;2023-05-10T17:56:14;10.80;91.00
56753;DHT22;42627;42.646;23.642;2023-05-10T17:58:14;10.80;91.40
56753;DHT22;42627;42.646;23.642;2023-05-10T18:00:15;10.80;90.90
56753;DHT22;42627;42.646;23.642;2023-05-10T18:02:41;10.80;91.40
56753;DHT22;42627;42.646;23.642;2023-05-10T18:04:42;10.80;91.20
56753;DHT22;42627;42.646;23.642;2023-05-10T18:06:42;10.80;91.40
56753;DHT22;42627;42.646;23.642;2023-05-10T18:08:44;10.80;91.40
56753;DHT22;42627;42.646;23.642;2023-05-10T18:10:44;10.90;91.50
56753;DHT22;42627;42.646;23.642;2023-05-10T18:13:19;10.80;91.40
56753;DHT22;42627;42.646;23.642;2023-05-10T18:15:43;10.80;91.50
56753;DHT22;42627;42.646;23.642;2023-05-10T18:17:44;10.80;92.00
56753;DHT22;42627;42.646;23.642;2023-05-10T18:19:45;10.80;91.80
56753;DHT22;42627;42.646;23.642;2023-05-10T18:21:45;10.80;91.80
56753;DHT22;42627;42.646;23.642;2023-05-10T18:23:46;10.80;92.40
56753;DHT22;42627;42.646;23.642;2023-05-10T18:25:47;10.80;92.20
56753;DHT22;42627;42.646;23.642;2023-05-10T18:27:47;10.80;92.30
56753;DHT22;42627;42.646;23.642;2023-05-10T18:29:48;10.80;92.20
56753;DHT22;42627;42.646;23.642;2023-05-10T18:32:00;10.80;92.40
56753;DHT22;42627;42.646;23.642;2023-05-10T18:34:01;10.80;92.60
56753;DHT22;42627;42.646;23.642;2023-05-10T18:36:01;10.80;92.90
56753;DHT22;42627;42.646;23.642;2023-05-10T18:38:03;10.80;92.60
56753;DHT22;42627;42.646;23.642;2023-05-10T18:40:05;10.80;92.70
56753;DHT22;42627;42.646;23.642;2023-05-10T18:42:36;10.80;93.60
56753;DHT22;42627;42.646;23.642;2023-05-10T18:45:11;10.70;93.90
56753;DHT22;42627;42.646;23.642;2023-05-10T18:47:12;10.70;93.50
56753;DHT22;42627;42.646;23.642;2023-05-10T18:51:23;10.70;93.00
56753;DHT22;42627;42.646;23.642;2023-05-10T19:02:07;10.60;93.70
56753;DHT22;42627;42.646;23.642;2023-05-10T19:04:07;10.70;94.10
56753;DHT22;42627;42.646;23.642;2023-05-10T19:06:08;10.70;94.80
56753;DHT22;42627;42.646;23.642;2023-05-10T19:08:09;10.70;94.60
56753;DHT22;42627;42.646;23.642;2023-05-10T19:10:36;10.60;94.40
56753;DHT22;42627;42.646;23.642;2023-05-10T19:12:58;10.60;95.10
56753;DHT22;42627;42.646;23.642;2023-05-10T19:15:21;10.60;95.40
56753;DHT22;42627;42.646;23.642;2023-05-10T19:17:21;10.60;95.70
56753;DHT22;42627;42.646;23.642;2023-05-10T19:19:22;10.60;95.60
56753;DHT22;42627;42.646;23.642;2023-05-10T19:21:22;10.70;95.60
56753;DHT22;42627;42.646;23.642;2023-05-10T19:23:23;10.60;95.60
56753;DHT22;42627;42.646;23.642;2023-05-10T19:25:24;10.70;95.40
56753;DHT22;42627;42.646;23.642;2023-05-10T19:27:28;10.70;95.70
56753;DHT22;42627;42.646;23.642;2023-05-10T19:29:29;10.70;96.00
56753;DHT22;42627;42.646;23.642;2023-05-10T19:31:36;10.60;96.30
56753;DHT22;42627;42.646;23.642;2023-05-10T19:33:37;10.70;96.50
56753;DHT22;42627;42.646;23.642;2023-05-10T19:35:38;10.60;97.50
56753;DHT22;42627;42.646;23.642;2023-05-10T19:37:39;10.70;97.30
56753;DHT22;42627;42.646;23.642;2023-05-10T19:39:39;10.70;97.50
56753;DHT22;42627;42.646;23.642;2023-05-10T19:48:17;10.60;97.10
56753;DHT22;42627;42.646;23.642;2023-05-10T19:50:17;10.60;96.60
56753;DHT22;42627;42.646;23.642;2023-05-10T19:52:18;10.60;96.30
56753;DHT22;42627;42.646;23.642;2023-05-10T19:54:19;10.60;96.50
56753;DHT22;42627;42.646;23.642;2023-05-10T19:56:20;10.60;96.90
56753;DHT22;42627;42.646;23.642;2023-05-10T19:58:21;10.60;97.20
56753;DHT22;42627;42.646;23.642;2023-05-10T20:02:32;10.60;98.10
56753;DHT22;42627;42.646;23.642;2023-05-10T20:04:32;10.70;98.40
56753;DHT22;42627;42.646;23.642;2023-05-10T20:06:36;10.70;98.10
56753;DHT22;42627;42.646;23.642;2023-05-10T20:08:42;10.70;98.50
56753;DHT22;42627;42.646;23.642;2023-05-10T20:17:14;10.60;99.90
56753;DHT22;42627;42.646;23.642;2023-05-10T20:19:14;10.60;99.90
56753;DHT22;42627;42.646;23.642;2023-05-10T20:21:16;10.60;99.90
56753;DHT22;42627;42.646;23.642;2023-05-10T20:23:17;10.60;99.90
56753;DHT22;42627;42.646;23.642;2023-05-10T20:25:18;10.50;99.90
56753;DHT22;42627;42.646;23.642;2023-05-10T20:27:19;10.50;99.90
56753;DHT22;42627;42.646;23.642;2023-05-10T20:29:35;10.60;99.90
56753;DHT22;42627;42.646;23.642;2023-05-10T20:31:36;10.60;99.90
56753;DHT22;42627;42.646;23.642;2023-05-10T20:33:36;10.60;99.90
56753;DHT22;42627;42.646;23.642;2023-05-10T20:35:37;10.50;99.90
56753;DHT22;42627;42.646;23.642;2023-05-10T20:37:38;10.60;99.90
56753;DHT22;42627;42.646;23.642;2023-05-10T20:39:43;10.50;99.90
56753;DHT22;42627;42.646;23.642;2023-05-10T20:42:08;10.50;99.90
56753;DHT22;42627;42.646;23.642;2023-05-10T20:44:31;10.50;99.90
56753;DHT22;42627;42.646;23.642;2023-05-10T20:46:32;10.50;99.90
56753;DHT22;42627;42.646;23.642;2023-05-10T20:48:36;10.50;99.90
56753;DHT22;42627;42.646;23.642;2023-05-10T20:50:37;10.60;99.90
56753;DHT22;42627;42.646;23.642;2023-05-10T21:05:52;10.50;99.90
56753;DHT22;42627;42.646;23.642;2023-05-10T21:15:04;10.50;99.90
56753;DHT22;42627;42.646;23.642;2023-05-10T21:17:05;10.40;99.90
56753;DHT22;42627;42.646;23.642;2023-05-10T21:19:06;10.40;99.90
56753;DHT22;42627;42.646;23.642;2023-05-10T21:21:06;10.50;99.90
56753;DHT22;42627;42.646;23.642;2023-05-10T21:23:07;10.40;99.90
56753;DHT22;42627;42.646;23.642;2023-05-10T21:25:08;10.40;99.90
56753;DHT22;42627;42.646;23.642;2023-05-10T21:27:09;10.40;99.90
56753;DHT22;42627;42.646;23.642;2023-05-10T21:29:44;10.40;99.90
56753;DHT22;42627;42.646;23.642;2023-05-10T21:31:45;10.40;99.90
56753;DHT22;42627;42.646;23.642;2023-05-10T21:33:46;10.40;99.90
56753;DHT22;42627;42.646;23.642;2023-05-10T21:35:47;10.40;99.90
56753;DHT22;42627;42.646;23.642;2023-05-10T21:37:47;10.40;99.90
56753;DHT22;42627;42.646;23.642;2023-05-10T21:40:03;10.40;99.90
56753;DHT22;42627;42.646;23.642;2023-05-10T21:42:27;10.30;99.90
56753;DHT22;42627;42.646;23.642;2023-05-10T21:44:48;10.40;99.90
56753;DHT22;42627;42.646;23.642;2023-05-10T21:46:48;10.30;99.90
56753;DHT22;42627;42.646;23.642;2023-05-10T21:48:49;10.30;99.90
56753;DHT22;42627;42.646;23.642;2023-05-10T21:50:49;10.20;99.90
56753;DHT22;42627;42.646;23.642;2023-05-10T21:52:50;10.20;99.90
56753;DHT22;42627;42.646;23.642;2023-05-10T21:54:51;10.20;99.90
56753;DHT22;42627;42.646;23.642;2023-05-10T21:56:51;10.20;99.90
56753;DHT22;42627;42.646;23.642;2023-05-10T21:59:08;10.10;99.90
56753;DHT22;42627;42.646;23.642;2023-05-10T22:01:08;10.10;99.90
56753;DHT22;42627;42.646;23.642;2023-05-10T22:03:21;10.10;99.90
56753;DHT22;42627;42.646;23.642;2023-05-10T22:13:18;10.10;99.90
56753;DHT22;42627;42.646;23.642;2023-05-10T22:15:38;10.00;99.90
56753;DHT22;42627;42.646;23.642;2023-05-10T22:19:49;10.00;99.90
56753;DHT22;42627;42.646;23.642;2023-05-10T22:21:50;10.00;99.90
56753;DHT22;42627;42.646;23.642;2023-05-10T22:23:51;10.00;99.90
56753;DHT22;42627;42.646;23.642;2023-05-10T22:26:10;10.00;99.90
56753;DHT22;42627;42.646;23.642;2023-05-10T22:31:09;9.90;99.90
56753;DHT22;42627;42.646;23.642;2023-05-10T22:35:21;9.90;99.90
56753;DHT22;42627;42.646;23.642;2023-05-10T22:37:24;10.00;99.90
56753;DHT22;42627;42.646;23.642;2023-05-10T22:44:58;10.00;99.90
56753;DHT22;42627;42.646;23.642;2023-05-10T22:46:59;9.90;99.90
56753;DHT22;42627;42.646;23.642;2023-05-10T22:48:59;9.90;99.90
56753;DHT22;42627;42.646;23.642;2023-05-10T22:51:00;9.90;99.90
56753;DHT22;42627;42.646;23.642;2023-05-10T22:53:01;9.90;99.90
56753;DHT22;42627;42.646;23.642;2023-05-10T22:55:02;9.90;99.90
56753;DHT22;42627;42.646;23.642;2023-05-10T22:57:03;9.90;99.90
56753;DHT22;42627;42.646;23.642;2023-05-10T22:59:07;9.90;99.90
56753;DHT22;42627;42.646;23.642;2023-05-10T23:01:08;9.90;99.90
56753;DHT22;42627;42.646;23.642;2023-05-10T23:03:09;9.90;97.40
56753;DHT22;42627;42.646;23.642;2023-05-10T23:05:09;9.90;96.40
56753;DHT22;42627;42.646;23.642;2023-05-10T23:07:10;9.80;97.00
56753;DHT22;42627;42.646;23.642;2023-05-10T23:09:41;9.80;97.00
56753;DHT22;42627;42.646;23.642;2023-05-10T23:11:57;9.80;96.40
56753;DHT22;42627;42.646;23.642;2023-05-10T23:14:12;9.70;95.80
56753;DHT22;42627;42.646;23.642;2023-05-10T23:16:13;9.70;96.50
56753;DHT22;42627;42.646;23.642;2023-05-10T23:18:14;9.70;96.90
56753;DHT22;42627;42.646;23.642;2023-05-10T23:20:15;9.70;96.90
56753;DHT22;42627;42.646;23.642;2023-05-10T23:22:16;9.70;96.50
56753;DHT22;42627;42.646;23.642;2023-05-10T23:24:17;9.70;96.60
56753;DHT22;42627;42.646;23.642;2023-05-10T23:26:17;9.70;96.60
56753;DHT22;42627;42.646;23.642;2023-05-10T23:30:31;9.70;96.90
56753;DHT22;42627;42.646;23.642;2023-05-10T23:32:32;9.70;96.90
56753;DHT22;42627;42.646;23.642;2023-05-10T23:34:33;9.60;97.10
56753;DHT22;42627;42.646;23.642;2023-05-10T23:36:34;9.70;96.90
56753;DHT22;42627;42.646;23.642;2023-05-10T23:38:59;9.60;96.00
56753;DHT22;42627;42.646;23.642;2023-05-10T23:43:56;9.60;95.90
56753;DHT22;42627;42.646;23.642;2023-05-10T23:45:57;9.60;96.40
56753;DHT22;42627;42.646;23.642;2023-05-10T23:47:58;9.60;96.80
56753;DHT22;42627;42.646;23.642;2023-05-10T23:49:58;9.60;96.20
56753;DHT22;42627;42.646;23.642;2023-05-10T23:51:59;9.60;95.60
56753;DHT22;42627;42.646;23.642;2023-05-10T23:54:00;9.70;95.50
56753;DHT22;42627;42.646;23.642;2023-05-10T23:56:01;9.60;94.70
